createdAt,value
2018-05-14T00:00:50.037Z,172.70
2018-05-14T00:01:49.936Z,176.60
2018-05-14T00:02:49.950Z,167.60
2018-05-14T00:03:50.047Z,162.70
2018-05-14T00:04:49.985Z,162.50
2018-05-14T00:05:50.000Z,148.50
2018-05-14T00:06:50.021Z,152.50
2018-05-14T00:07:50.039Z,153.30
2018-05-14T00:08:50.055Z,159.30
2018-05-14T00:09:50.070Z,162.10
2018-05-14T00:10:50.085Z,149.50
2018-05-14T00:11:50.101Z,145.80
2018-05-14T00:12:50.119Z,147.70
2018-05-14T00:13:50.138Z,156.80
2018-05-14T00:14:50.151Z,159.80
2018-05-14T00:15:50.167Z,143.00
2018-05-14T00:16:50.190Z,151.10
2018-05-14T00:17:50.202Z,171.00
2018-05-14T00:18:50.216Z,144.40
2018-05-14T00:19:50.234Z,154.70
2018-05-14T00:20:50.251Z,149.90
2018-05-14T00:21:50.266Z,128.40
2018-05-14T00:22:50.286Z,142.80
2018-05-14T00:23:50.304Z,149.10
2018-05-14T00:24:50.318Z,144.50
2018-05-14T00:25:50.337Z,153.70
2018-05-14T00:26:50.350Z,143.30
2018-05-14T00:27:50.369Z,148.60
2018-05-14T00:28:50.383Z,157.00
2018-05-14T00:29:50.400Z,162.20
2018-05-14T00:30:50.420Z,145.90
2018-05-14T00:31:50.755Z,148.70
2018-05-14T00:32:50.470Z,139.40
2018-05-14T00:33:50.467Z,118.10
2018-05-14T00:34:50.488Z,144.30
2018-05-14T00:35:50.502Z,129.10
2018-05-14T00:36:50.587Z,126.70
2018-05-14T00:37:50.534Z,135.10
2018-05-14T00:38:50.551Z,132.70
2018-05-14T00:39:50.569Z,142.50
2018-05-14T00:40:50.620Z,138.40
2018-05-14T00:41:50.600Z,141.90
2018-05-14T00:42:50.628Z,145.30
2018-05-14T00:43:50.635Z,152.30
2018-05-14T00:44:50.651Z,176.70
2018-05-14T00:45:50.668Z,130.70
2018-05-14T00:46:50.688Z,141.60
2018-05-14T00:47:50.702Z,119.50
2018-05-14T00:48:50.716Z,127.00
2018-05-14T00:49:50.734Z,138.40
2018-05-14T00:50:50.751Z,119.90
2018-05-14T00:51:50.771Z,113.50
2018-05-14T00:52:50.787Z,114.20
2018-05-14T00:53:50.800Z,106.80
2018-05-14T00:54:50.820Z,115.60
2018-05-14T00:55:50.835Z,151.00
2018-05-14T00:56:50.850Z,131.80
2018-05-14T00:57:50.868Z,129.00
2018-05-14T00:58:50.881Z,131.80
2018-05-14T00:59:50.899Z,117.50
2018-05-14T01:00:50.920Z,132.60
2018-05-14T01:01:50.934Z,121.50
2018-05-14T01:02:50.952Z,133.80
2018-05-14T01:03:50.965Z,150.00
2018-05-14T01:04:50.984Z,148.20
2018-05-14T01:05:51.001Z,143.60
2018-05-14T01:06:51.051Z,137.90
2018-05-14T01:07:51.046Z,130.70
2018-05-14T01:08:51.119Z,149.00
2018-05-14T01:09:51.065Z,160.10
2018-05-14T01:10:51.083Z,133.20
2018-05-14T01:11:51.100Z,134.70
2018-05-14T01:12:51.123Z,140.80
2018-05-14T01:13:51.133Z,126.90
2018-05-14T01:14:51.149Z,126.00
2018-05-14T01:15:51.191Z,114.20
2018-05-14T01:16:51.184Z,117.50
2018-05-14T01:17:51.204Z,111.60
2018-05-14T01:18:51.217Z,137.40
2018-05-14T01:19:51.237Z,126.70
2018-05-14T01:20:51.248Z,130.60
2018-05-14T01:21:51.266Z,119.40
2018-05-14T01:22:51.283Z,115.70
2018-05-14T01:23:51.299Z,113.10
2018-05-14T01:24:51.321Z,117.90
2018-05-14T01:25:51.336Z,118.80
2018-05-14T01:26:51.348Z,112.40
2018-05-14T01:27:51.364Z,109.80
2018-05-14T01:28:51.381Z,103.80
2018-05-14T01:29:51.396Z,107.90
2018-05-14T01:30:51.413Z,109.90
2018-05-14T01:31:51.430Z,109.70
2018-05-14T01:32:51.448Z,101.60
2018-05-14T01:33:51.464Z,106.80
2018-05-14T01:34:51.480Z,108.40
2018-05-14T01:35:51.501Z,99.30
2018-05-14T01:36:51.513Z,108.60
2018-05-14T01:37:51.531Z,93.80
2018-05-14T01:38:51.545Z,101.20
2018-05-14T01:39:51.600Z,94.20
2018-05-14T01:40:51.585Z,94.10
2018-05-14T01:41:51.598Z,97.90
2018-05-14T01:42:51.615Z,92.30
2018-05-14T01:43:51.636Z,95.50
2018-05-14T01:44:51.646Z,91.50
2018-05-14T01:45:51.662Z,95.10
2018-05-14T01:46:51.751Z,92.20
2018-05-14T01:47:51.696Z,100.60
2018-05-14T01:48:51.714Z,97.40
2018-05-14T01:49:51.729Z,88.60
2018-05-14T01:50:51.746Z,89.50
2018-05-14T01:51:51.766Z,86.50
2018-05-14T01:52:51.779Z,85.90
2018-05-14T01:53:51.796Z,81.90
2018-05-14T01:54:51.816Z,89.90
2018-05-14T01:55:51.829Z,84.70
2018-05-14T01:56:51.851Z,96.90
2018-05-14T01:57:51.863Z,96.90
2018-05-14T01:58:51.879Z,94.50
2018-05-14T01:59:51.901Z,95.40
2018-05-14T02:00:51.913Z,97.70
2018-05-14T02:01:51.930Z,94.70
2018-05-14T02:02:51.943Z,98.40
2018-05-14T02:03:51.962Z,89.20
2018-05-14T02:04:51.981Z,92.90
2018-05-14T02:05:51.994Z,95.50
2018-05-14T02:06:52.059Z,88.60
2018-05-14T02:07:52.030Z,90.60
2018-05-14T02:08:52.045Z,90.00
2018-05-14T02:09:52.061Z,90.30
2018-05-14T02:10:52.081Z,95.60
2018-05-14T02:11:52.095Z,99.60
2018-05-14T02:12:52.118Z,98.60
2018-05-14T02:13:52.133Z,92.40
2018-05-14T02:14:52.157Z,88.60
2018-05-14T02:15:52.166Z,84.00
2018-05-14T02:16:52.188Z,93.40
2018-05-14T02:17:52.194Z,92.20
2018-05-14T02:18:52.213Z,85.20
2018-05-14T02:19:52.228Z,99.00
2018-05-14T02:20:52.247Z,110.30
2018-05-14T02:21:52.259Z,97.40
2018-05-14T02:22:52.279Z,88.10
2018-05-14T02:23:52.298Z,89.20
2018-05-14T02:24:52.314Z,89.90
2018-05-14T02:25:52.330Z,75.70
2018-05-14T02:26:52.350Z,78.30
2018-05-14T02:27:52.362Z,72.50
2018-05-14T02:28:52.386Z,75.10
2018-05-14T02:29:52.406Z,77.00
2018-05-14T02:30:52.411Z,84.20
2018-05-14T02:31:52.430Z,77.20
2018-05-14T02:32:52.444Z,87.70
2018-05-14T02:33:52.461Z,81.30
2018-05-14T02:34:52.477Z,75.00
2018-05-14T02:35:52.494Z,73.70
2018-05-14T02:36:52.513Z,70.60
2018-05-14T02:37:52.529Z,79.20
2018-05-14T02:38:52.547Z,78.60
2018-05-14T02:39:52.563Z,74.60
2018-05-14T02:40:52.586Z,79.50
2018-05-14T02:41:52.593Z,78.80
2018-05-14T02:42:52.614Z,70.50
2018-05-14T02:43:52.627Z,83.10
2018-05-14T02:44:52.647Z,69.50
2018-05-14T02:45:52.664Z,69.30
2018-05-14T02:46:52.677Z,72.40
2018-05-14T02:47:52.694Z,73.50
2018-05-14T02:48:52.731Z,65.30
2018-05-14T02:49:52.731Z,71.20
2018-05-14T02:50:52.743Z,69.80
2018-05-14T02:51:52.758Z,70.40
2018-05-14T02:52:52.779Z,74.50
2018-05-14T02:53:52.793Z,69.00
2018-05-14T02:54:52.809Z,70.20
2018-05-14T02:55:52.827Z,69.00
2018-05-14T02:56:52.845Z,70.90
2018-05-14T02:57:52.860Z,70.40
2018-05-14T02:58:52.876Z,67.60
2018-05-14T02:59:52.897Z,77.00
2018-05-14T03:00:52.910Z,81.40
2018-05-14T03:01:52.925Z,74.50
2018-05-14T03:02:52.944Z,77.60
2018-05-14T03:03:52.964Z,83.40
2018-05-14T03:04:52.991Z,74.20
2018-05-14T03:05:52.993Z,64.60
2018-05-14T03:06:53.009Z,79.90
2018-05-14T03:07:53.026Z,80.10
2018-05-14T03:08:53.044Z,77.30
2018-05-14T03:09:53.060Z,66.50
2018-05-14T03:10:53.076Z,67.20
2018-05-14T03:11:53.094Z,68.00
2018-05-14T03:12:53.110Z,69.60
2018-05-14T03:13:53.129Z,68.60
2018-05-14T03:14:53.140Z,72.70
2018-05-14T03:15:53.159Z,64.90
2018-05-14T03:16:53.179Z,67.80
2018-05-14T03:17:53.191Z,64.90
2018-05-14T03:18:53.212Z,60.70
2018-05-14T03:19:53.226Z,58.50
2018-05-14T03:20:53.239Z,61.20
2018-05-14T03:21:53.255Z,61.90
2018-05-14T03:22:53.277Z,72.30
2018-05-14T03:23:53.290Z,62.10
2018-05-14T03:24:53.642Z,63.50
2018-05-14T03:25:53.328Z,72.80
2018-05-14T03:26:53.341Z,83.50
2018-05-14T03:27:53.376Z,66.20
2018-05-14T03:28:53.377Z,65.30
2018-05-14T03:29:53.391Z,80.30
2018-05-14T03:30:53.409Z,72.80
2018-05-14T03:31:53.427Z,67.40
2018-05-14T03:32:53.445Z,65.50
2018-05-14T03:33:53.457Z,69.70
2018-05-14T03:34:53.472Z,78.90
2018-05-14T03:35:53.492Z,66.80
2018-05-14T03:36:53.517Z,76.10
2018-05-14T03:37:53.523Z,65.90
2018-05-14T03:38:53.540Z,67.50
2018-05-14T03:39:53.555Z,62.30
2018-05-14T03:40:53.574Z,68.60
2018-05-14T03:41:53.606Z,63.00
2018-05-14T03:42:53.610Z,67.70
2018-05-14T03:43:53.621Z,67.40
2018-05-14T03:44:53.641Z,67.50
2018-05-14T03:45:53.660Z,59.70
2018-05-14T03:46:53.672Z,65.10
2018-05-14T03:47:53.696Z,72.80
2018-05-14T03:48:53.709Z,64.10
2018-05-14T03:49:53.731Z,63.40
2018-05-14T03:50:53.737Z,67.60
2018-05-14T03:51:53.756Z,63.60
2018-05-14T03:52:53.771Z,64.90
2018-05-14T03:53:53.785Z,66.00
2018-05-14T03:54:53.812Z,67.40
2018-05-14T03:55:53.820Z,68.60
2018-05-14T03:56:53.862Z,76.80
2018-05-14T03:57:53.890Z,66.10
2018-05-14T03:58:53.896Z,62.20
2018-05-14T03:59:53.895Z,71.60
2018-05-14T04:00:53.904Z,61.20
2018-05-14T04:01:53.922Z,59.50
2018-05-14T04:02:53.937Z,62.90
2018-05-14T04:03:53.954Z,68.30
2018-05-14T04:04:53.969Z,62.30
2018-05-14T04:05:54.085Z,63.40
2018-05-14T04:06:54.006Z,62.00
2018-05-14T04:07:54.021Z,71.70
2018-05-14T04:08:54.035Z,63.70
2018-05-14T04:09:54.056Z,70.10
2018-05-14T04:10:54.073Z,68.50
2018-05-14T04:11:54.089Z,61.20
2018-05-14T04:12:54.102Z,65.60
2018-05-14T04:13:54.209Z,62.00
2018-05-14T04:14:54.140Z,64.90
2018-05-14T04:15:54.151Z,60.10
2018-05-14T04:16:54.167Z,61.70
2018-05-14T04:17:54.185Z,63.20
2018-05-14T04:18:54.201Z,58.50
2018-05-14T04:19:54.221Z,60.70
2018-05-14T04:20:54.237Z,59.10
2018-05-14T04:21:54.253Z,65.40
2018-05-14T04:22:54.267Z,61.00
2018-05-14T04:23:54.285Z,63.30
2018-05-14T04:24:54.312Z,62.90
2018-05-14T04:25:54.317Z,66.40
2018-05-14T04:26:54.333Z,59.80
2018-05-14T04:27:54.354Z,62.70
2018-05-14T04:28:54.367Z,60.80
2018-05-14T04:29:54.383Z,68.90
2018-05-14T04:30:54.411Z,64.40
2018-05-14T04:31:54.421Z,68.10
2018-05-14T04:32:54.803Z,64.60
2018-05-14T04:33:54.450Z,62.70
2018-05-14T04:34:54.473Z,64.70
2018-05-14T04:35:54.484Z,64.60
2018-05-14T04:36:54.644Z,67.70
2018-05-14T04:37:54.515Z,62.70
2018-05-14T04:38:54.541Z,63.40
2018-05-14T04:39:54.553Z,61.90
2018-05-14T04:40:54.567Z,63.30
2018-05-14T04:41:54.583Z,61.80
2018-05-14T04:42:54.600Z,63.00
2018-05-14T04:43:54.621Z,69.60
2018-05-14T04:44:54.714Z,65.10
2018-05-14T04:45:54.654Z,65.50
2018-05-14T04:46:54.672Z,62.50
2018-05-14T04:48:54.702Z,68.50
2018-05-14T04:49:54.713Z,64.80
2018-05-14T04:50:54.730Z,61.70
2018-05-14T04:51:54.742Z,60.70
2018-05-14T04:52:54.759Z,60.90
2018-05-14T04:53:54.775Z,60.50
2018-05-14T04:54:54.792Z,61.10
2018-05-14T04:56:54.837Z,62.60
2018-05-14T04:57:54.847Z,56.80
2018-05-14T04:58:54.873Z,56.40
2018-05-14T04:59:54.877Z,60.50
2018-05-14T05:00:54.895Z,58.00
2018-05-14T05:01:54.907Z,59.90
2018-05-14T05:02:54.925Z,57.20
2018-05-14T05:03:54.953Z,56.50
2018-05-14T05:04:54.964Z,59.60
2018-05-14T05:05:55.033Z,61.90
2018-05-14T05:06:54.994Z,55.00
2018-05-14T05:07:55.028Z,54.90
2018-05-14T05:08:55.031Z,62.00
2018-05-14T05:09:55.045Z,53.50
2018-05-14T05:10:55.078Z,57.00
2018-05-14T05:11:55.080Z,62.20
2018-05-14T05:12:55.092Z,56.70
2018-05-14T05:13:55.111Z,55.20
2018-05-14T05:14:55.126Z,51.40
2018-05-14T05:15:55.142Z,56.10
2018-05-14T05:16:55.160Z,55.70
2018-05-14T05:17:55.185Z,55.10
2018-05-14T05:18:55.192Z,50.90
2018-05-14T05:19:55.217Z,53.60
2018-05-14T05:20:55.231Z,54.30
2018-05-14T05:21:55.248Z,57.30
2018-05-14T05:22:55.347Z,60.40
2018-05-14T05:23:55.277Z,51.70
2018-05-14T05:24:55.292Z,57.10
2018-05-14T05:25:55.311Z,51.90
2018-05-14T05:26:55.337Z,54.00
2018-05-14T05:27:55.341Z,52.00
2018-05-14T05:28:55.360Z,52.00
2018-05-14T05:29:55.376Z,53.30
2018-05-14T05:30:55.393Z,51.00
2018-05-14T05:31:55.410Z,53.00
2018-05-14T05:32:55.429Z,49.50
2018-05-14T05:33:55.444Z,49.00
2018-05-14T05:34:55.475Z,54.00
2018-05-14T05:35:55.478Z,50.40
2018-05-14T05:36:55.499Z,50.60
2018-05-14T05:37:55.580Z,50.30
2018-05-14T05:38:55.530Z,50.00
2018-05-14T05:39:55.550Z,51.20
2018-05-14T05:41:55.577Z,49.90
2018-05-14T05:42:55.599Z,49.10
2018-05-14T05:43:55.609Z,49.20
2018-05-14T05:44:55.627Z,47.50
2018-05-14T05:45:55.643Z,48.20
2018-05-14T05:46:55.661Z,49.60
2018-05-14T05:47:55.677Z,47.50
2018-05-14T05:48:55.698Z,48.50
2018-05-14T05:49:55.711Z,48.30
2018-05-14T05:50:55.727Z,52.30
2018-05-14T05:51:55.744Z,49.10
2018-05-14T05:52:55.763Z,47.30
2018-05-14T05:53:55.779Z,51.00
2018-05-14T05:54:55.797Z,53.60
2018-05-14T05:55:55.812Z,54.20
2018-05-14T05:56:55.827Z,47.80
2018-05-14T05:57:55.857Z,50.50
2018-05-14T05:58:55.880Z,50.30
2018-05-14T05:59:55.887Z,49.20
2018-05-14T06:00:55.895Z,47.50
2018-05-14T06:01:55.910Z,49.80
2018-05-14T06:02:55.930Z,52.40
2018-05-14T06:03:55.945Z,47.30
2018-05-14T06:04:55.962Z,53.00
2018-05-14T06:05:55.985Z,49.30
2018-05-14T06:06:55.995Z,53.10
2018-05-14T06:07:56.012Z,47.80
2018-05-14T06:08:56.032Z,49.60
2018-05-14T06:09:56.057Z,48.70
2018-05-14T06:10:56.066Z,49.90
2018-05-14T06:11:56.102Z,49.50
2018-05-14T06:12:56.129Z,50.00
2018-05-14T06:13:56.111Z,48.20
2018-05-14T06:14:56.169Z,49.50
2018-05-14T06:15:56.148Z,51.30
2018-05-14T06:16:56.166Z,50.10
2018-05-14T06:17:56.178Z,53.00
2018-05-14T06:18:56.196Z,48.60
2018-05-14T06:19:56.212Z,47.50
2018-05-14T06:20:56.231Z,45.30
2018-05-14T06:21:56.245Z,46.70
2018-05-14T06:22:56.274Z,49.20
2018-05-14T06:23:56.281Z,48.00
2018-05-14T06:24:56.295Z,48.00
2018-05-14T06:25:56.315Z,48.30
2018-05-14T06:26:56.331Z,50.30
2018-05-14T06:27:56.365Z,45.00
2018-05-14T06:28:56.367Z,47.30
2018-05-14T06:29:56.381Z,48.80
2018-05-14T06:30:56.397Z,48.90
2018-05-14T06:31:56.502Z,49.90
2018-05-14T06:32:56.433Z,52.30
2018-05-14T06:33:56.452Z,48.10
2018-05-14T06:34:56.474Z,49.40
2018-05-14T06:35:56.618Z,48.80
2018-05-14T06:36:56.731Z,50.20
2018-05-14T06:37:56.706Z,48.80
2018-05-14T06:38:56.618Z,49.00
2018-05-14T06:39:56.745Z,49.10
2018-05-14T06:40:56.634Z,48.40
2018-05-14T06:41:56.671Z,46.70
2018-05-14T06:42:56.622Z,46.40
2018-05-14T06:43:56.617Z,46.00
2018-05-14T06:44:56.644Z,46.90
2018-05-14T06:45:56.653Z,46.30
2018-05-14T06:46:56.678Z,47.30
2018-05-14T06:47:56.685Z,45.00
2018-05-14T06:48:56.701Z,46.00
2018-05-14T06:49:56.816Z,42.80
2018-05-14T06:50:56.740Z,43.40
2018-05-14T06:51:56.755Z,42.80
2018-05-14T06:52:56.770Z,44.90
2018-05-14T06:53:56.806Z,44.10
2018-05-14T06:54:56.804Z,44.70
2018-05-14T06:55:56.820Z,45.50
2018-05-14T06:56:56.838Z,45.70
2018-05-14T06:57:56.857Z,45.40
2018-05-14T06:59:56.909Z,44.80
2018-05-14T07:00:56.906Z,47.00
2018-05-14T07:01:56.926Z,45.60
2018-05-14T07:02:56.946Z,44.40
2018-05-14T07:03:56.957Z,44.60
2018-05-14T07:04:56.973Z,46.80
2018-05-14T07:05:56.995Z,47.00
2018-05-14T07:06:57.007Z,47.00
2018-05-14T07:07:57.029Z,48.90
2018-05-14T07:08:57.083Z,47.70
2018-05-14T07:09:57.065Z,44.20
2018-05-14T07:10:57.084Z,42.60
2018-05-14T07:11:57.834Z,47.40
2018-05-14T07:12:57.120Z,42.90
2018-05-14T07:13:57.138Z,42.60
2018-05-14T07:14:57.171Z,42.80
2018-05-14T07:15:57.219Z,42.10
2018-05-14T07:16:57.177Z,41.30
2018-05-14T07:17:57.195Z,40.60
2018-05-14T07:18:57.214Z,41.20
2018-05-14T07:19:57.296Z,41.10
2018-05-14T07:20:57.252Z,40.90
2018-05-14T07:21:57.262Z,40.60
2018-05-14T07:22:57.277Z,38.50
2018-05-14T07:23:57.315Z,39.30
2018-05-14T07:24:57.320Z,37.50
2018-05-14T07:26:57.369Z,36.50
2018-05-14T07:27:57.372Z,35.50
2018-05-14T07:28:57.382Z,33.50
2018-05-14T07:29:57.402Z,35.00
2018-05-14T07:30:57.415Z,34.20
2018-05-14T07:31:57.430Z,33.20
2018-05-14T07:32:57.455Z,34.10
2018-05-14T07:33:57.507Z,33.40
2018-05-14T07:34:57.507Z,31.30
2018-05-14T07:35:57.510Z,32.50
2018-05-14T07:36:57.627Z,35.10
2018-05-14T07:37:57.567Z,34.20
2018-05-14T07:38:57.564Z,34.10
2018-05-14T07:39:59.193Z,34.70
2018-05-14T07:40:57.591Z,33.90
2018-05-14T07:41:57.609Z,36.00
2018-05-14T07:42:57.619Z,34.90
2018-05-14T07:43:58.021Z,35.10
2018-05-14T07:44:57.659Z,35.90
2018-05-14T07:45:57.774Z,36.00
2018-05-14T07:46:57.695Z,35.30
2018-05-14T07:47:57.706Z,36.50
2018-05-14T07:48:57.732Z,29.90
2018-05-14T07:49:58.060Z,30.00
2018-05-14T07:50:57.929Z,29.80
2018-05-14T07:51:57.775Z,29.20
2018-05-14T07:52:57.942Z,31.10
2018-05-14T07:53:57.826Z,31.80
2018-05-14T07:54:57.847Z,32.20
2018-05-14T07:55:57.854Z,31.00
2018-05-14T07:56:57.869Z,30.90
2018-05-14T07:57:58.307Z,31.70
2018-05-14T07:58:57.912Z,33.10
2018-05-14T07:59:58.637Z,32.30
2018-05-14T08:00:57.973Z,30.40
2018-05-14T08:01:57.956Z,32.00
2018-05-14T08:02:57.970Z,30.00
2018-05-14T08:03:58.003Z,30.50
2018-05-14T08:04:58.000Z,30.00
2018-05-14T08:05:58.019Z,30.00
2018-05-14T08:06:58.042Z,30.40
2018-05-14T08:07:58.051Z,29.10
2018-05-14T08:08:58.111Z,28.90
2018-05-14T08:09:59.523Z,29.10
2018-05-14T08:10:58.566Z,28.80
2018-05-14T08:11:59.375Z,28.60
2018-05-14T08:12:59.010Z,29.00
2018-05-14T08:13:58.836Z,29.60
2018-05-14T08:14:58.479Z,28.40
2018-05-14T08:15:58.930Z,27.50
2018-05-14T08:16:58.382Z,28.60
2018-05-14T08:18:01.845Z,28.10
2018-05-14T08:18:58.527Z,28.40
2018-05-14T08:19:58.967Z,27.40
2018-05-14T08:20:58.288Z,28.90
2018-05-14T08:21:58.495Z,28.60
2018-05-14T08:23:02.459Z,28.10
2018-05-14T08:23:58.702Z,26.80
2018-05-14T08:25:02.450Z,27.70
2018-05-14T08:26:01.585Z,27.80
2018-05-14T08:26:58.573Z,27.70
2018-05-14T08:27:59.627Z,27.40
2018-05-14T08:28:58.841Z,26.60
2018-05-14T08:29:58.741Z,27.30
2018-05-14T08:31:58.617Z,24.40
2018-05-14T08:32:58.677Z,24.00
2018-05-14T08:34:00.343Z,23.50
2018-05-14T08:35:02.950Z,25.40
2018-05-14T08:36:03.086Z,27.60
2018-05-14T08:36:59.139Z,25.90
2018-05-14T08:37:59.179Z,26.10
2018-05-14T08:39:02.301Z,25.40
2018-05-14T08:39:59.549Z,25.70
2018-05-14T08:41:03.288Z,23.80
2018-05-14T08:42:03.327Z,25.60
2018-05-14T08:42:58.793Z,25.80
2018-05-14T08:44:00.932Z,25.10
2018-05-14T08:44:59.473Z,25.40
2018-05-14T08:45:58.918Z,27.00
2018-05-14T08:47:00.718Z,25.20
2018-05-14T08:47:58.944Z,27.00
2018-05-14T08:48:58.971Z,25.50
2018-05-14T08:50:01.596Z,25.00
2018-05-14T08:51:58.985Z,24.10
2018-05-14T08:53:02.937Z,26.00
2018-05-14T08:53:59.054Z,25.90
2018-05-14T08:54:59.743Z,25.10
2018-05-14T08:55:59.988Z,24.10
2018-05-14T08:58:01.822Z,24.90
2018-05-14T08:58:59.376Z,26.00
2018-05-14T09:00:00.174Z,23.10
2018-05-14T09:01:01.301Z,24.00
2018-05-14T09:02:03.086Z,22.30
2018-05-14T09:02:59.924Z,23.70
2018-05-14T09:04:03.061Z,23.10
2018-05-14T09:05:01.019Z,23.30
2018-05-14T09:05:59.293Z,23.00
2018-05-14T09:07:02.298Z,22.90
2018-05-14T09:07:59.306Z,27.80
2018-05-14T09:08:59.860Z,23.10
2018-05-14T09:10:01.350Z,20.30
2018-05-14T09:10:59.286Z,19.60
2018-05-14T09:11:59.799Z,17.60
2018-05-14T09:13:03.642Z,17.30
2018-05-14T09:13:59.369Z,17.60
2018-05-14T09:14:59.331Z,18.00
2018-05-14T09:16:59.382Z,18.00
2018-05-14T09:17:59.497Z,17.10
2018-05-14T09:18:59.601Z,16.70
2018-05-14T09:19:59.335Z,19.80
2018-05-14T09:21:00.008Z,17.20
2018-05-14T09:22:03.635Z,15.90
2018-05-14T09:22:59.979Z,17.20
2018-05-14T09:23:59.572Z,19.30
2018-05-14T09:24:59.665Z,18.90
2018-05-14T09:26:00.111Z,19.60
2018-05-14T09:27:00.106Z,20.30
2018-05-14T09:28:01.071Z,19.50
2018-05-14T09:29:00.163Z,19.90
2018-05-14T09:29:59.764Z,21.60
2018-05-14T09:30:59.856Z,22.40
2018-05-14T09:32:01.805Z,18.90
2018-05-14T09:33:00.569Z,19.00
2018-05-14T09:34:02.728Z,18.70
2018-05-14T09:35:02.154Z,18.50
2018-05-14T09:35:59.682Z,17.80
2018-05-14T09:36:59.643Z,18.70
2018-05-14T09:37:59.654Z,19.40
2018-05-14T09:38:59.671Z,17.60
2018-05-14T09:39:59.695Z,17.40
2018-05-14T09:40:59.717Z,17.00
2018-05-14T09:41:59.753Z,16.40
2018-05-14T09:42:59.797Z,15.30
2018-05-14T09:43:59.761Z,14.60
2018-05-14T09:44:59.786Z,15.10
2018-05-14T09:45:59.799Z,14.20
2018-05-14T09:46:59.820Z,14.10
2018-05-14T09:47:59.837Z,13.90
2018-05-14T09:48:59.856Z,13.90
2018-05-14T09:49:59.881Z,13.50
2018-05-14T09:50:59.893Z,14.60
2018-05-14T09:51:59.913Z,14.30
2018-05-14T09:52:59.947Z,14.30
2018-05-14T09:53:59.949Z,13.10
2018-05-14T09:54:59.978Z,12.60
2018-05-14T09:55:59.988Z,13.70
2018-05-14T09:57:00.005Z,13.20
2018-05-14T09:58:00.026Z,13.10
2018-05-14T09:59:00.038Z,13.70
2018-05-14T10:00:00.128Z,13.20
2018-05-14T10:01:00.094Z,12.50
2018-05-14T10:02:00.223Z,14.50
2018-05-14T10:03:00.114Z,14.00
2018-05-14T10:04:00.150Z,13.80
2018-05-14T10:05:00.154Z,13.20
2018-05-14T10:06:00.213Z,15.20
2018-05-14T10:07:00.189Z,13.80
2018-05-14T10:08:00.425Z,14.60
2018-05-14T10:09:00.226Z,14.10
2018-05-14T10:10:00.356Z,14.30
2018-05-14T10:11:00.267Z,12.50
2018-05-14T10:12:00.283Z,12.50
2018-05-14T10:13:00.345Z,21.20
2018-05-14T10:14:00.322Z,12.40
2018-05-14T10:15:00.346Z,14.20
2018-05-14T10:16:00.362Z,11.80
2018-05-14T10:17:00.475Z,13.60
2018-05-14T10:18:00.419Z,13.60
2018-05-14T10:19:00.426Z,12.50
2018-05-14T10:20:00.438Z,11.20
2018-05-14T10:21:00.457Z,13.60
2018-05-14T10:22:00.710Z,11.50
2018-05-14T10:23:00.663Z,11.90
2018-05-14T10:24:00.525Z,11.50
2018-05-14T10:25:00.544Z,13.10
2018-05-14T10:26:00.548Z,12.80
2018-05-14T10:27:00.568Z,11.90
2018-05-14T10:28:00.595Z,11.00
2018-05-14T10:29:00.609Z,10.90
2018-05-14T10:30:00.627Z,12.00
2018-05-14T10:31:00.737Z,11.50
2018-05-14T10:32:00.759Z,12.60
2018-05-14T10:33:00.684Z,10.70
2018-05-14T10:34:00.709Z,14.80
2018-05-14T10:35:00.746Z,10.80
2018-05-14T10:36:00.744Z,11.60
2018-05-14T10:37:00.762Z,10.80
2018-05-14T10:38:00.785Z,11.40
2018-05-14T10:39:00.805Z,10.30
2018-05-14T10:40:00.827Z,10.00
2018-05-14T10:41:00.868Z,10.50
2018-05-14T10:42:00.861Z,10.70
2018-05-14T10:43:00.883Z,11.30
2018-05-14T10:44:00.896Z,9.90
2018-05-14T10:45:00.937Z,11.70
2018-05-14T10:46:00.940Z,10.50
2018-05-14T10:47:00.959Z,9.60
2018-05-14T10:48:00.981Z,12.50
2018-05-14T10:49:00.997Z,13.00
2018-05-14T10:50:01.012Z,9.90
2018-05-14T10:51:01.075Z,12.80
2018-05-14T10:52:01.052Z,13.00
2018-05-14T10:53:01.074Z,9.20
2018-05-14T10:54:01.092Z,10.30
2018-05-14T10:55:01.107Z,11.50
2018-05-14T10:56:01.153Z,9.40
2018-05-14T10:57:01.150Z,9.40
2018-05-14T10:58:01.948Z,10.50
2018-05-14T10:59:01.191Z,10.50
2018-05-14T11:00:01.221Z,9.80
2018-05-14T11:01:01.279Z,9.60
2018-05-14T11:02:01.261Z,8.80
2018-05-14T11:03:01.265Z,9.30
2018-05-14T11:04:01.371Z,8.90
2018-05-14T11:05:01.304Z,8.30
2018-05-14T11:06:01.340Z,7.90
2018-05-14T11:07:01.345Z,9.70
2018-05-14T11:08:01.382Z,10.80
2018-05-14T11:09:01.385Z,9.20
2018-05-14T11:10:05.123Z,8.60
2018-05-14T11:11:01.422Z,8.60
2018-05-14T11:12:02.115Z,8.80
2018-05-14T11:13:01.467Z,7.80
2018-05-14T11:14:01.693Z,9.40
2018-05-14T11:15:01.503Z,9.70
2018-05-14T11:16:01.624Z,6.90
2018-05-14T11:17:01.899Z,8.70
2018-05-14T11:18:01.576Z,8.10
2018-05-14T11:19:01.584Z,10.20
2018-05-14T11:20:01.604Z,7.70
2018-05-14T11:21:01.622Z,8.30
2018-05-14T11:22:01.647Z,8.10
2018-05-14T11:23:01.892Z,10.30
2018-05-14T11:24:01.717Z,9.50
2018-05-14T11:25:05.510Z,8.50
2018-05-14T11:26:04.804Z,9.70
2018-05-14T11:27:06.037Z,7.90
2018-05-14T11:28:02.828Z,6.80
2018-05-14T11:29:01.785Z,7.10
2018-05-14T11:30:01.801Z,8.40
2018-05-14T11:31:01.825Z,9.90
2018-05-14T11:32:02.687Z,8.10
2018-05-14T11:33:01.865Z,8.50
2018-05-14T11:34:02.082Z,7.00
2018-05-14T11:35:01.912Z,6.80
2018-05-14T11:36:01.932Z,6.60
2018-05-14T11:37:01.943Z,7.90
2018-05-14T11:38:02.206Z,9.20
2018-05-14T11:39:01.984Z,8.40
2018-05-14T11:40:03.449Z,6.20
2018-05-14T11:41:02.337Z,6.90
2018-05-14T11:43:02.533Z,6.70
2018-05-14T11:44:02.097Z,7.00
2018-05-14T11:45:02.107Z,11.20
2018-05-14T11:46:02.141Z,8.90
2018-05-14T11:47:02.337Z,9.70
2018-05-14T11:48:02.166Z,8.70
2018-05-14T11:49:02.260Z,7.30
2018-05-14T11:50:02.210Z,7.40
2018-05-14T11:51:02.226Z,8.00
2018-05-14T11:52:02.248Z,9.20
2018-05-14T11:53:02.266Z,6.20
2018-05-14T11:54:02.295Z,7.80
2018-05-14T11:55:02.308Z,6.20
2018-05-14T11:56:02.339Z,9.10
2018-05-14T11:57:02.355Z,7.10
2018-05-14T11:58:02.370Z,6.60
2018-05-14T11:59:02.400Z,7.60
2018-05-14T12:00:02.411Z,9.80
2018-05-14T12:01:02.437Z,7.30
2018-05-14T12:02:02.454Z,5.90
2018-05-14T12:03:02.535Z,7.20
2018-05-14T12:04:02.493Z,6.90
2018-05-14T12:05:02.521Z,7.60
2018-05-14T12:06:02.540Z,5.00
2018-05-14T12:07:02.557Z,8.20
2018-05-14T12:08:02.576Z,5.30
2018-05-14T12:09:02.598Z,7.70
2018-05-14T12:10:02.629Z,6.40
2018-05-14T12:11:02.648Z,5.80
2018-05-14T12:12:02.664Z,5.90
2018-05-14T12:13:02.683Z,6.60
2018-05-14T12:14:02.701Z,8.00
2018-05-14T12:15:02.726Z,7.70
2018-05-14T12:16:02.800Z,6.60
2018-05-14T12:17:02.772Z,6.80
2018-05-14T12:18:02.882Z,8.70
2018-05-14T12:19:02.811Z,5.60
2018-05-14T12:20:02.830Z,9.00
2018-05-14T12:21:02.854Z,6.30
2018-05-14T12:22:02.873Z,6.70
2018-05-14T12:23:02.890Z,6.70
2018-05-14T12:24:02.913Z,5.30
2018-05-14T12:25:02.952Z,8.30
2018-05-14T12:26:03.029Z,6.70
2018-05-14T12:27:02.977Z,7.10
2018-05-14T12:28:02.999Z,6.20
2018-05-14T12:29:03.019Z,6.50
2018-05-14T12:30:03.042Z,7.10
2018-05-14T12:31:03.069Z,6.80
2018-05-14T12:32:03.273Z,6.00
2018-05-14T12:33:03.107Z,6.80
2018-05-14T12:34:03.128Z,6.80
2018-05-14T12:35:03.160Z,6.90
2018-05-14T12:36:03.170Z,5.80
2018-05-14T12:37:03.218Z,7.00
2018-05-14T12:38:03.219Z,6.50
2018-05-14T12:39:03.242Z,6.50
2018-05-14T12:40:03.257Z,5.60
2018-05-14T12:41:03.280Z,6.10
2018-05-14T12:42:03.301Z,6.00
2018-05-14T12:43:03.323Z,4.90
2018-05-14T12:44:03.342Z,6.20
2018-05-14T12:45:03.362Z,4.90
2018-05-14T12:46:03.403Z,5.30
2018-05-14T12:47:03.417Z,6.30
2018-05-14T12:48:03.429Z,6.50
2018-05-14T12:49:03.451Z,6.60
2018-05-14T12:50:03.475Z,6.60
2018-05-14T12:51:03.497Z,5.90
2018-05-14T12:52:03.546Z,7.50
2018-05-14T12:53:03.545Z,5.90
2018-05-14T12:54:03.570Z,6.10
2018-05-14T12:55:03.598Z,6.20
2018-05-14T12:56:03.765Z,8.30
2018-05-14T12:57:03.664Z,5.40
2018-05-14T12:58:03.753Z,6.90
2018-05-14T12:59:03.693Z,6.40
2018-05-14T13:00:03.721Z,5.10
2018-05-14T13:01:03.766Z,6.60
2018-05-14T13:02:03.771Z,5.90
2018-05-14T13:03:04.408Z,7.50
2018-05-14T13:04:03.825Z,13.60